Serenade Of The Seas — C6FV8 — position and weather

sailwx.info

Track history (hours):
 
Tides and Currents Weather Stations Pressure Air Temp Water Temp Dewpoint Dewpoint Depression Visibility Wind Speed Wind Dir Waves Ship Positions

Serenade Of The Seas

Operator: Royal Caribbean Cruises Ltd

Last reported at 2015-Jan-27 08:33 UTC. Time now 2015-Jan-28 20:17 UTC.
Position N 25°55' W 079°24'.

Length 294 m; draft 8.5 m.

Type: Ship. MMSI: 311492000.

Date/timePositionNaut miles runAvg speedWind from/ knotsBaromVisibWave heightAir tempDewpointWater temp
2015-Jan-27 08:33N 25°55' W 079°24'60916.4
2015-Jan-25 19:32N 29°53' W 089°58'6 5.3
2015-Jan-25 18:27N 29°57' W 090°02'0 0.3
2015-Jan-25 17:29N 29°58' W 090°02'0 0.0
2015-Jan-25 16:33N 29°58' W 090°02'0 0.0
2015-Jan-25 15:32N 29°58' W 090°02'0 0.0
2015-Jan-25 14:30N 29°58' W 090°02'0 0.0
2015-Jan-25 13:32N 29°58' W 090°02'0 0.0
2015-Jan-25 12:32N 29°58' W 090°02'0 0.0
2015-Jan-25 11:31N 29°58' W 090°02'0 0.1
2015-Jan-25 10:33N 29°57' W 090°02'1 0.1
2015-Jan-24 13:29N 29°57' W 090°04'9 6.9
2015-Jan-24 12:09N 29°53' W 089°54'58215.8
2015-Jan-22 23:20N 20°33' W 086°58'4 4.5
2015-Jan-22 22:26N 20°29' W 086°59'0 0.0
2015-Jan-22 21:32N 20°29' W 086°59'0 0.0
2015-Jan-22 20:32N 20°29' W 086°59'0 0.0
2015-Jan-22 19:26N 20°29' W 086°59'0 0.0
2015-Jan-22 18:26N 20°29' W 086°59'0 0.0
2015-Jan-22 17:20N 20°29' W 086°59'0 0.0
2015-Jan-22 16:14N 20°29' W 086°59'0 0.0
2015-Jan-22 15:26N 20°29' W 086°59'0 0.0
2015-Jan-22 14:34N 20°29' W 086°59'  
2015-Jan-18 00:11N 29°52' W 089°59'5 6.3
2015-Jan-17 23:27N 29°55' W 089°55'7 0.6
2015-Jan-17 12:33N 29°58' W 090°03'6 5.1
2015-Jan-17 11:18N 29°53' W 089°58'  
Track history (hours):
 
Tides and Currents Weather Stations Pressure Air Temp Water Temp Dewpoint Dewpoint Depression Visibility Wind Speed Wind Dir Waves Ship Positions

Serenade Of The Seas

Operator: Royal Caribbean Cruises Ltd

Last reported at 2015-Jan-27 08:33 UTC. Time now 2015-Jan-28 20:17 UTC.
Position N 25°55' W 079°24'.

Length 294 m; draft 8.5 m.

Type: Ship. MMSI: 311492000.

Date/timePositionNaut miles runAvg speedWind from/ knotsBaromVisibWave heightAir tempDewpointWater temp
2015-Jan-27 08:33N 25°55' W 079°24'60916.4
2015-Jan-25 19:32N 29°53' W 089°58'6 5.3
2015-Jan-25 18:27N 29°57' W 090°02'0 0.3
2015-Jan-25 17:29N 29°58' W 090°02'0 0.0
2015-Jan-25 16:33N 29°58' W 090°02'0 0.0
2015-Jan-25 15:32N 29°58' W 090°02'0 0.0
2015-Jan-25 14:30N 29°58' W 090°02'0 0.0
2015-Jan-25 13:32N 29°58' W 090°02'0 0.0
2015-Jan-25 12:32N 29°58' W 090°02'0 0.0
2015-Jan-25 11:31N 29°58' W 090°02'0 0.1
2015-Jan-25 10:33N 29°57' W 090°02'1 0.1
2015-Jan-24 13:29N 29°57' W 090°04'9 6.9
2015-Jan-24 12:09N 29°53' W 089°54'58215.8
2015-Jan-22 23:20N 20°33' W 086°58'4 4.5
2015-Jan-22 22:26N 20°29' W 086°59'0 0.0
2015-Jan-22 21:32N 20°29' W 086°59'0 0.0
2015-Jan-22 20:32N 20°29' W 086°59'0 0.0
2015-Jan-22 19:26N 20°29' W 086°59'0 0.0
2015-Jan-22 18:26N 20°29' W 086°59'0 0.0
2015-Jan-22 17:20N 20°29' W 086°59'0 0.0
2015-Jan-22 16:14N 20°29' W 086°59'0 0.0
2015-Jan-22 15:26N 20°29' W 086°59'0 0.0
2015-Jan-22 14:34N 20°29' W 086°59'  
2015-Jan-18 00:11N 29°52' W 089°59'5 6.3
2015-Jan-17 23:27N 29°55' W 089°55'7 0.6
2015-Jan-17 12:33N 29°58' W 090°03'6 5.1
2015-Jan-17 11:18N 29°53' W 089°58'  

Dump ship's entire track history